TAM3964 SBSP-SBSR
Flight info
| Callsign | TAM3964 |
|---|---|
| Flight time | 0h 53m |
| Altitude | 32000 |
| Route | GERTU UL201 UPONA |
| Aircraft | A320/M-SDE3FGHIRWY/LB1 |
Departure
| Time | 2026-04-21 22:02 |
|---|---|
| Airport | Congonhas–Deputado Freitas Nobre Airport (SBSP) |
Arrival
| Time | 2026-04-21 22:55 |
|---|---|
| Airport | Prof. Eribelto Manoel Reino State Airport (SBSR) |
| Time | Latitude | Longitude | Altitude | Speed | Heading |
|---|---|---|---|---|---|
| 2026-04-21 21:32 | -23.63066 | -46.65770 | 2601 ft | 0 kts | 147° |
| 2026-04-21 21:53 | -23.63057 | -46.65776 | 2600 ft | 3 kts | 139° |
| 2026-04-21 21:53 | -23.63044 | -46.65792 | 2600 ft | 3 kts | 103° |
| 2026-04-21 21:53 | -23.63044 | -46.65812 | 2600 ft | 2 kts | 62° |
| 2026-04-21 21:53 | -23.63049 | -46.65820 | 2600 ft | 1 kts | 57° |
| 2026-04-21 21:54 | -23.63049 | -46.65821 | 2600 ft | 0 kts | 57° |
| 2026-04-21 21:57 | -23.63049 | -46.65820 | 2600 ft | 1 kts | 57° |
| 2026-04-21 21:57 | -23.63029 | -46.65789 | 2600 ft | 7 kts | 56° |
| 2026-04-21 21:57 | -23.62996 | -46.65731 | 2600 ft | 11 kts | 57° |
| 2026-04-21 21:57 | -23.62958 | -46.65668 | 2601 ft | 10 kts | 57° |
| 2026-04-21 21:58 | -23.62925 | -46.65613 | 2602 ft | 9 kts | 56° |
| 2026-04-21 21:58 | -23.62890 | -46.65599 | 2603 ft | 4 kts | 344° |
| 2026-04-21 21:58 | -23.62834 | -46.65640 | 2603 ft | 17 kts | 328° |
| 2026-04-21 21:58 | -23.62723 | -46.65716 | 2602 ft | 21 kts | 326° |
| 2026-04-21 21:59 | -23.62592 | -46.65807 | 2602 ft | 24 kts | 327° |
| 2026-04-21 21:59 | -23.62446 | -46.65909 | 2601 ft | 24 kts | 328° |
| 2026-04-21 21:59 | -23.62317 | -46.65997 | 2600 ft | 20 kts | 327° |
| 2026-04-21 21:59 | -23.62235 | -46.66049 | 2600 ft | 11 kts | 335° |
| 2026-04-21 22:00 | -23.62165 | -46.66093 | 2599 ft | 10 kts | 327° |
| 2026-04-21 22:00 | -23.62121 | -46.66125 | 2598 ft | 2 kts | 327° |
| 2026-04-21 22:00 | -23.62095 | -46.66136 | 2592 ft | 14 kts | 347° |
| 2026-04-21 22:00 | -23.62051 | -46.66079 | 2587 ft | 11 kts | 121° |
| 2026-04-21 22:01 | -23.62077 | -46.66056 | 2596 ft | 0 kts | 146° |
| 2026-04-21 22:01 | -23.62085 | -46.66050 | 2597 ft | 10 kts | 146° |
| 2026-04-21 22:01 | -23.62401 | -46.65830 | 2602 ft | 96 kts | 148° |
| 2026-04-21 22:01 | -23.63173 | -46.65300 | 2725 ft | 154 kts | 149° |
| 2026-04-21 22:02 | -23.64060 | -46.64705 | 3734 ft | 152 kts | 146° |
| 2026-04-21 22:02 | -23.65111 | -46.64397 | 4592 ft | 166 kts | 185° |
| 2026-04-21 22:02 | -23.66263 | -46.64648 | 5096 ft | 175 kts | 187° |
| 2026-04-21 22:02 | -23.67551 | -46.64739 | 5339 ft | 197 kts | 181° |
| 2026-04-21 22:03 | -23.68999 | -46.64756 | 5556 ft | 217 kts | 180° |
| 2026-04-21 22:03 | -23.70564 | -46.64765 | 5820 ft | 237 kts | 180° |
| 2026-04-21 22:03 | -23.72310 | -46.64790 | 6248 ft | 256 kts | 181° |
| 2026-04-21 22:03 | -23.74134 | -46.64927 | 6697 ft | 274 kts | 194° |
| 2026-04-21 22:04 | -23.75781 | -46.65985 | 7384 ft | 282 kts | 228° |
| 2026-04-21 22:04 | -23.76679 | -46.67887 | 8160 ft | 288 kts | 252° |
| 2026-04-21 22:04 | -23.77224 | -46.70009 | 8946 ft | 292 kts | 253° |
| 2026-04-21 22:04 | -23.77898 | -46.72105 | 9720 ft | 294 kts | 243° |
| 2026-04-21 22:05 | -23.78881 | -46.74079 | 10388 ft | 301 kts | 237° |
| 2026-04-21 22:05 | -23.80080 | -46.76062 | 10608 ft | 324 kts | 233° |
| 2026-04-21 22:05 | -23.81420 | -46.78109 | 11053 ft | 336 kts | 232° |
| 2026-04-21 22:05 | -23.82797 | -46.80194 | 11695 ft | 341 kts | 233° |
| 2026-04-21 22:06 | -23.84172 | -46.82319 | 12371 ft | 345 kts | 233° |
| 2026-04-21 22:06 | -23.85409 | -46.84581 | 13040 ft | 351 kts | 246° |
| 2026-04-21 22:06 | -23.86036 | -46.87172 | 13705 ft | 357 kts | 263° |
| 2026-04-21 22:06 | -23.85939 | -46.89893 | 14320 ft | 362 kts | 280° |
| 2026-04-21 22:07 | -23.85119 | -46.92501 | 14927 ft | 366 kts | 297° |
| 2026-04-21 22:07 | -23.83831 | -46.94906 | 15554 ft | 368 kts | 300° |
| 2026-04-21 22:07 | -23.82519 | -46.97311 | 16200 ft | 369 kts | 300° |
| 2026-04-21 22:07 | -23.81206 | -46.99729 | 16844 ft | 371 kts | 299° |
| 2026-04-21 22:08 | -23.79892 | -47.02158 | 17491 ft | 372 kts | 299° |
| 2026-04-21 22:08 | -23.78575 | -47.04592 | 18136 ft | 374 kts | 299° |
| 2026-04-21 22:08 | -23.77099 | -47.06893 | 18676 ft | 378 kts | 312° |
| 2026-04-21 22:08 | -23.75040 | -47.08648 | 19147 ft | 383 kts | 330° |
| 2026-04-21 22:09 | -23.72517 | -47.09735 | 19637 ft | 388 kts | 340° |
| 2026-04-21 22:09 | -23.69948 | -47.10672 | 20126 ft | 390 kts | 340° |
| 2026-04-21 22:09 | -23.67359 | -47.11603 | 20621 ft | 393 kts | 340° |
| 2026-04-21 22:09 | -23.64749 | -47.12539 | 21102 ft | 396 kts | 340° |
| 2026-04-21 22:10 | -23.62133 | -47.13479 | 21572 ft | 398 kts | 340° |
| 2026-04-21 22:10 | -23.59478 | -47.14436 | 22033 ft | 401 kts | 340° |
| 2026-04-21 22:10 | -23.56815 | -47.15398 | 22478 ft | 404 kts | 340° |
| 2026-04-21 22:10 | -23.54139 | -47.16367 | 22927 ft | 407 kts | 340° |
| 2026-04-21 22:11 | -23.51441 | -47.17345 | 23375 ft | 410 kts | 340° |
| 2026-04-21 22:11 | -23.48725 | -47.18328 | 23782 ft | 413 kts | 340° |
| 2026-04-21 22:11 | -23.45980 | -47.19320 | 24139 ft | 415 kts | 340° |
| 2026-04-21 22:11 | -23.43234 | -47.20312 | 24506 ft | 417 kts | 340° |
| 2026-04-21 22:12 | -23.40467 | -47.21311 | 24875 ft | 419 kts | 340° |
| 2026-04-21 22:12 | -23.37691 | -47.22314 | 25250 ft | 421 kts | 339° |
| 2026-04-21 22:12 | -23.34901 | -47.23325 | 25606 ft | 423 kts | 339° |
| 2026-04-21 22:12 | -23.32104 | -47.24339 | 25972 ft | 425 kts | 339° |
| 2026-04-21 22:13 | -23.29287 | -47.25356 | 26325 ft | 427 kts | 339° |
| 2026-04-21 22:13 | -23.26492 | -47.26362 | 26671 ft | 429 kts | 339° |
| 2026-04-21 22:13 | -23.23649 | -47.27384 | 27020 ft | 431 kts | 339° |
| 2026-04-21 22:13 | -23.20791 | -47.28414 | 27370 ft | 433 kts | 339° |
| 2026-04-21 22:14 | -23.17917 | -47.29449 | 27707 ft | 435 kts | 339° |
| 2026-04-21 22:14 | -23.15067 | -47.30474 | 28045 ft | 437 kts | 339° |
| 2026-04-21 22:14 | -23.12137 | -47.31527 | 28380 ft | 439 kts | 339° |
| 2026-04-21 22:14 | -23.09228 | -47.32571 | 28712 ft | 441 kts | 339° |
| 2026-04-21 22:15 | -23.06332 | -47.33610 | 29028 ft | 444 kts | 339° |
| 2026-04-21 22:15 | -23.03392 | -47.34662 | 29354 ft | 446 kts | 339° |
| 2026-04-21 22:15 | -23.00440 | -47.35720 | 29661 ft | 448 kts | 339° |
| 2026-04-21 22:15 | -22.97479 | -47.36781 | 29968 ft | 450 kts | 339° |
| 2026-04-21 22:16 | -22.94494 | -47.37853 | 30247 ft | 452 kts | 339° |
| 2026-04-21 22:16 | -22.91501 | -47.38929 | 30468 ft | 455 kts | 339° |
| 2026-04-21 22:16 | -22.88489 | -47.40011 | 30681 ft | 458 kts | 339° |
| 2026-04-21 22:16 | -22.85443 | -47.41104 | 30886 ft | 460 kts | 339° |
| 2026-04-21 22:17 | -22.82399 | -47.42195 | 31096 ft | 463 kts | 339° |
| 2026-04-21 22:17 | -22.79334 | -47.43292 | 31295 ft | 466 kts | 339° |
| 2026-04-21 22:17 | -22.76248 | -47.44391 | 31503 ft | 468 kts | 339° |
| 2026-04-21 22:17 | -22.73156 | -47.45493 | 31806 ft | 468 kts | 339° |
| 2026-04-21 22:18 | -22.70055 | -47.46600 | 32007 ft | 469 kts | 339° |
| 2026-04-21 22:18 | -22.63861 | -47.48814 | 32054 ft | 473 kts | 339° |
| 2026-04-21 22:19 | -22.57586 | -47.51061 | 32055 ft | 475 kts | 339° |
| 2026-04-21 22:19 | -22.51306 | -47.53302 | 32056 ft | 476 kts | 339° |
| 2026-04-21 22:20 | -22.45101 | -47.55655 | 32052 ft | 473 kts | 331° |
| 2026-04-21 22:20 | -22.42252 | -47.57479 | 32058 ft | 468 kts | 320° |
| 2026-04-21 22:20 | -22.39822 | -47.59798 | 32058 ft | 464 kts | 311° |
| 2026-04-21 22:21 | -22.35370 | -47.64794 | 32051 ft | 464 kts | 311° |
| 2026-04-21 22:21 | -22.30881 | -47.69813 | 32045 ft | 465 kts | 311° |
| 2026-04-21 22:22 | -22.26382 | -47.74813 | 32045 ft | 465 kts | 311° |
| 2026-04-21 22:22 | -22.21836 | -47.79863 | 32048 ft | 465 kts | 311° |
| 2026-04-21 22:23 | -22.17329 | -47.84889 | 32044 ft | 466 kts | 311° |
| 2026-04-21 22:23 | -22.12813 | -47.89916 | 32044 ft | 466 kts | 311° |
| 2026-04-21 22:24 | -22.08278 | -47.94944 | 32042 ft | 467 kts | 311° |
| 2026-04-21 22:24 | -22.03782 | -47.99925 | 32040 ft | 467 kts | 311° |
| 2026-04-21 22:25 | -21.99248 | -48.04947 | 32031 ft | 467 kts | 311° |
| 2026-04-21 22:25 | -21.94677 | -48.10004 | 32029 ft | 468 kts | 311° |
| 2026-04-21 22:26 | -21.90157 | -48.15015 | 31630 ft | 467 kts | 311° |
| 2026-04-21 22:26 | -21.87865 | -48.17542 | 31393 ft | 465 kts | 311° |
| 2026-04-21 22:26 | -21.85610 | -48.20029 | 31157 ft | 463 kts | 311° |
| 2026-04-21 22:26 | -21.83363 | -48.22507 | 30714 ft | 461 kts | 312° |
| 2026-04-21 22:27 | -21.81135 | -48.24963 | 30162 ft | 456 kts | 312° |
| 2026-04-21 22:27 | -21.78931 | -48.27391 | 29591 ft | 452 kts | 312° |
| 2026-04-21 22:27 | -21.76737 | -48.29808 | 29077 ft | 448 kts | 312° |
| 2026-04-21 22:27 | -21.74572 | -48.32194 | 28586 ft | 444 kts | 312° |
| 2026-04-21 22:28 | -21.72423 | -48.34557 | 28085 ft | 441 kts | 312° |
| 2026-04-21 22:28 | -21.70287 | -48.36905 | 27592 ft | 437 kts | 312° |
| 2026-04-21 22:28 | -21.68876 | -48.38457 | 27265 ft | 435 kts | 312° |
| 2026-04-21 22:28 | -21.66091 | -48.41525 | 26599 ft | 430 kts | 312° |
| 2026-04-21 22:29 | -21.63986 | -48.43845 | 26098 ft | 425 kts | 312° |
| 2026-04-21 22:29 | -21.62619 | -48.45350 | 25757 ft | 423 kts | 313° |
| 2026-04-21 22:29 | -21.60582 | -48.47592 | 25246 ft | 419 kts | 313° |
| 2026-04-21 22:29 | -21.58537 | -48.49838 | 24716 ft | 416 kts | 313° |
| 2026-04-21 22:30 | -21.56518 | -48.52052 | 24195 ft | 413 kts | 313° |
| 2026-04-21 22:30 | -21.54514 | -48.54246 | 23668 ft | 411 kts | 313° |
| 2026-04-21 22:30 | -21.52511 | -48.56438 | 23075 ft | 408 kts | 313° |
| 2026-04-21 22:30 | -21.50534 | -48.58605 | 22576 ft | 404 kts | 313° |
| 2026-04-21 22:31 | -21.48574 | -48.60754 | 22058 ft | 400 kts | 313° |
| 2026-04-21 22:31 | -21.46638 | -48.62877 | 21577 ft | 397 kts | 313° |
| 2026-04-21 22:31 | -21.44711 | -48.64989 | 21075 ft | 394 kts | 313° |
| 2026-04-21 22:31 | -21.42801 | -48.67079 | 20594 ft | 391 kts | 313° |
| 2026-04-21 22:32 | -21.40893 | -48.69164 | 20111 ft | 389 kts | 314° |
| 2026-04-21 22:32 | -21.39003 | -48.71228 | 19634 ft | 387 kts | 314° |
| 2026-04-21 22:32 | -21.37121 | -48.73284 | 19163 ft | 385 kts | 314° |
| 2026-04-21 22:32 | -21.35252 | -48.75328 | 18691 ft | 383 kts | 314° |
| 2026-04-21 22:33 | -21.33387 | -48.77370 | 18217 ft | 382 kts | 314° |
| 2026-04-21 22:33 | -21.31532 | -48.79401 | 17722 ft | 380 kts | 314° |
| 2026-04-21 22:33 | -21.29688 | -48.81416 | 17275 ft | 377 kts | 314° |
| 2026-04-21 22:33 | -21.27858 | -48.83412 | 16829 ft | 374 kts | 314° |
| 2026-04-21 22:34 | -21.26040 | -48.85391 | 16390 ft | 372 kts | 314° |
| 2026-04-21 22:34 | -21.24232 | -48.87356 | 15954 ft | 369 kts | 314° |
| 2026-04-21 22:34 | -21.22433 | -48.89313 | 15523 ft | 367 kts | 314° |
| 2026-04-21 22:34 | -21.20510 | -48.91094 | 15099 ft | 365 kts | 327° |
| 2026-04-21 22:35 | -21.18324 | -48.92464 | 14674 ft | 363 kts | 331° |
| 2026-04-21 22:35 | -21.16125 | -48.93796 | 14248 ft | 362 kts | 331° |
| 2026-04-21 22:35 | -21.13935 | -48.95121 | 13820 ft | 361 kts | 331° |
| 2026-04-21 22:35 | -21.11752 | -48.96439 | 13360 ft | 359 kts | 331° |
| 2026-04-21 22:36 | -21.07441 | -48.99048 | 12504 ft | 353 kts | 331° |
| 2026-04-21 22:36 | -21.05313 | -49.00338 | 12084 ft | 350 kts | 330° |
| 2026-04-21 22:36 | -21.03230 | -49.01604 | 11675 ft | 347 kts | 330° |
| 2026-04-21 22:37 | -21.01182 | -49.02848 | 11319 ft | 331 kts | 330° |
| 2026-04-21 22:37 | -20.99204 | -49.04046 | 10827 ft | 321 kts | 330° |
| 2026-04-21 22:37 | -20.97297 | -49.05199 | 10425 ft | 309 kts | 330° |
| 2026-04-21 22:37 | -20.95456 | -49.06311 | 10036 ft | 299 kts | 330° |
| 2026-04-21 22:38 | -20.93650 | -49.07403 | 9622 ft | 299 kts | 330° |
| 2026-04-21 22:38 | -20.91841 | -49.08496 | 9214 ft | 298 kts | 330° |
| 2026-04-21 22:38 | -20.90033 | -49.09591 | 8806 ft | 298 kts | 330° |
| 2026-04-21 22:38 | -20.88242 | -49.10674 | 8446 ft | 296 kts | 330° |
| 2026-04-21 22:39 | -20.86451 | -49.11754 | 8089 ft | 293 kts | 330° |
| 2026-04-21 22:39 | -20.84675 | -49.12825 | 7692 ft | 289 kts | 330° |
| 2026-04-21 22:39 | -20.82943 | -49.13869 | 7184 ft | 282 kts | 330° |
| 2026-04-21 22:39 | -20.81263 | -49.14881 | 6763 ft | 272 kts | 330° |
| 2026-04-21 22:40 | -20.79619 | -49.15871 | 6357 ft | 272 kts | 330° |
| 2026-04-21 22:40 | -20.77972 | -49.16864 | 5930 ft | 272 kts | 330° |
| 2026-04-21 22:40 | -20.76335 | -49.17879 | 5515 ft | 272 kts | 326° |
| 2026-04-21 22:40 | -20.74916 | -49.19204 | 5072 ft | 270 kts | 310° |
| 2026-04-21 22:41 | -20.73855 | -49.20841 | 4645 ft | 268 kts | 300° |
| 2026-04-21 22:41 | -20.72884 | -49.22554 | 4203 ft | 270 kts | 300° |
| 2026-04-21 22:41 | -20.72002 | -49.24288 | 4046 ft | 258 kts | 287° |
| 2026-04-21 22:41 | -20.71749 | -49.26109 | 3953 ft | 242 kts | 263° |
| 2026-04-21 22:42 | -20.72156 | -49.27785 | 3852 ft | 225 kts | 240° |
| 2026-04-21 22:42 | -20.73011 | -49.29091 | 3750 ft | 209 kts | 228° |
| 2026-04-21 22:42 | -20.73902 | -49.30271 | 3674 ft | 194 kts | 229° |
| 2026-04-21 22:42 | -20.74695 | -49.31335 | 3590 ft | 173 kts | 228° |
| 2026-04-21 22:43 | -20.75398 | -49.32278 | 3517 ft | 156 kts | 228° |
| 2026-04-21 22:43 | -20.76062 | -49.33164 | 3450 ft | 150 kts | 227° |
| 2026-04-21 22:43 | -20.76710 | -49.34028 | 3247 ft | 147 kts | 226° |
| 2026-04-21 22:43 | -20.77347 | -49.34875 | 3044 ft | 145 kts | 227° |
| 2026-04-21 22:44 | -20.77976 | -49.35715 | 2829 ft | 144 kts | 227° |
| 2026-04-21 22:44 | -20.78600 | -49.36547 | 2650 ft | 143 kts | 226° |
| 2026-04-21 22:44 | -20.79222 | -49.37374 | 2455 ft | 142 kts | 227° |
| 2026-04-21 22:44 | -20.79836 | -49.38194 | 2252 ft | 141 kts | 229° |
| 2026-04-21 22:45 | -20.80454 | -49.39004 | 2041 ft | 140 kts | 229° |
| 2026-04-21 22:45 | -20.81048 | -49.39808 | 1865 ft | 139 kts | 228° |
| 2026-04-21 22:45 | -20.81629 | -49.40590 | 1765 ft | 124 kts | 230° |
| 2026-04-21 22:45 | -20.82196 | -49.41343 | 2044 ft | 140 kts | 229° |
| 2026-04-21 22:46 | -20.82788 | -49.42157 | 2808 ft | 139 kts | 228° |
| 2026-04-21 22:46 | -20.83413 | -49.43031 | 3331 ft | 168 kts | 228° |
| 2026-04-21 22:46 | -20.84370 | -49.43902 | 3401 ft | 192 kts | 198° |
| 2026-04-21 22:46 | -20.85715 | -49.43867 | 3409 ft | 206 kts | 154° |
| 2026-04-21 22:47 | -20.86708 | -49.42749 | 3410 ft | 218 kts | 111° |
| 2026-04-21 22:47 | -20.86681 | -49.41102 | 3929 ft | 230 kts | 73° |
| 2026-04-21 22:47 | -20.86042 | -49.39525 | 4678 ft | 234 kts | 63° |
| 2026-04-21 22:47 | -20.85199 | -49.37920 | 4921 ft | 258 kts | 60° |
| 2026-04-21 22:48 | -20.84269 | -49.36251 | 4999 ft | 263 kts | 60° |
| 2026-04-21 22:48 | -20.83333 | -49.34566 | 5007 ft | 264 kts | 60° |
| 2026-04-21 22:48 | -20.82416 | -49.32865 | 5004 ft | 264 kts | 61° |
| 2026-04-21 22:48 | -20.81516 | -49.31147 | 5013 ft | 264 kts | 62° |
| 2026-04-21 22:49 | -20.80643 | -49.29453 | 5003 ft | 253 kts | 62° |
| 2026-04-21 22:49 | -20.79832 | -49.27859 | 5010 ft | 236 kts | 62° |
| 2026-04-21 22:49 | -20.79059 | -49.26330 | 5014 ft | 232 kts | 63° |
| 2026-04-21 22:49 | -20.78296 | -49.24813 | 5010 ft | 232 kts | 63° |
| 2026-04-21 22:50 | -20.77477 | -49.23332 | 5007 ft | 232 kts | 51° |
| 2026-04-21 22:50 | -20.76193 | -49.22299 | 4960 ft | 235 kts | 23° |
| 2026-04-21 22:50 | -20.74612 | -49.22000 | 4762 ft | 236 kts | 356° |
| 2026-04-21 22:50 | -20.73056 | -49.22504 | 4480 ft | 236 kts | 327° |
| 2026-04-21 22:51 | -20.71908 | -49.23727 | 4210 ft | 234 kts | 298° |
| 2026-04-21 22:51 | -20.71407 | -49.25357 | 3863 ft | 231 kts | 271° |
| 2026-04-21 22:51 | -20.71637 | -49.27018 | 3483 ft | 224 kts | 243° |
| 2026-04-21 22:51 | -20.72449 | -49.28336 | 3399 ft | 202 kts | 226° |
| 2026-04-21 22:52 | -20.73318 | -49.29468 | 3402 ft | 191 kts | 228° |
| 2026-04-21 22:52 | -20.74092 | -49.30507 | 3408 ft | 168 kts | 227° |
| 2026-04-21 22:52 | -20.74791 | -49.31459 | 3398 ft | 158 kts | 227° |
| 2026-04-21 22:52 | -20.75459 | -49.32373 | 3418 ft | 155 kts | 228° |
| 2026-04-21 22:53 | -20.76134 | -49.33270 | 3323 ft | 154 kts | 226° |
| 2026-04-21 22:53 | -20.76806 | -49.34157 | 3167 ft | 153 kts | 226° |
| 2026-04-21 22:53 | -20.77465 | -49.35043 | 2957 ft | 152 kts | 227° |
| 2026-04-21 22:53 | -20.78112 | -49.35927 | 2722 ft | 150 kts | 227° |
| 2026-04-21 22:54 | -20.78758 | -49.36798 | 2632 ft | 150 kts | 226° |
| 2026-04-21 22:54 | -20.79426 | -49.37656 | 2457 ft | 149 kts | 226° |
| 2026-04-21 22:54 | -20.80083 | -49.38523 | 2237 ft | 153 kts | 229° |
| 2026-04-21 22:54 | -20.80727 | -49.39384 | 1972 ft | 143 kts | 229° |
| 2026-04-21 22:55 | -20.81323 | -49.40178 | 1781 ft | 136 kts | 231° |
| 2026-04-21 22:55 | -20.81834 | -49.40860 | 1765 ft | 71 kts | 232° |
| 2026-04-21 22:55 | -20.82009 | -49.41094 | 1768 ft | 31 kts | 234° |
| 2026-04-21 22:55 | -20.82098 | -49.41210 | 1766 ft | 11 kts | 230° |
| 2026-04-21 22:56 | -20.82116 | -49.41275 | 1768 ft | 9 kts | 304° |
| 2026-04-21 22:56 | -20.82063 | -49.41296 | 1766 ft | 8 kts | 351° |
| 2026-04-21 22:56 | -20.82016 | -49.41301 | 1766 ft | 6 kts | 359° |
| 2026-04-21 22:56 | -20.81982 | -49.41287 | 1765 ft | 5 kts | 32° |
| 2026-04-21 22:57 | -20.81941 | -49.41249 | 1768 ft | 15 kts | 46° |
| 2026-04-21 22:57 | -20.81868 | -49.41164 | 1767 ft | 14 kts | 47° |
| 2026-04-21 22:57 | -20.81808 | -49.41090 | 1768 ft | 13 kts | 50° |
| 2026-04-21 22:57 | -20.81747 | -49.41007 | 1767 ft | 15 kts | 52° |
| 2026-04-21 22:58 | -20.81686 | -49.40926 | 1767 ft | 13 kts | 51° |
| 2026-04-21 22:58 | -20.81630 | -49.40852 | 1767 ft | 12 kts | 52° |
| 2026-04-21 22:58 | -20.81571 | -49.40772 | 1766 ft | 14 kts | 51° |
| 2026-04-21 22:58 | -20.81530 | -49.40721 | 1767 ft | 6 kts | 49° |
| 2026-04-21 22:59 | -20.81510 | -49.40685 | 1766 ft | 5 kts | 75° |
| 2026-04-21 22:59 | -20.81522 | -49.40645 | 1765 ft | 7 kts | 114° |
| 2026-04-21 22:59 | -20.81520 | -49.40588 | 1767 ft | 9 kts | 64° |
| 2026-04-21 22:59 | -20.81483 | -49.40533 | 1766 ft | 9 kts | 50° |
| 2026-04-21 23:00 | -20.81440 | -49.40477 | 1764 ft | 10 kts | 52° |
| 2026-04-21 23:00 | -20.81394 | -49.40417 | 1767 ft | 11 kts | 51° |
| 2026-04-21 23:00 | -20.81347 | -49.40354 | 1768 ft | 10 kts | 53° |
| 2026-04-21 23:00 | -20.81326 | -49.40325 | 1767 ft | 4 kts | 48° |
| 2026-04-21 23:01 | -20.81301 | -49.40314 | 1766 ft | 5 kts | 3° |
| 2026-04-21 23:01 | -20.81271 | -49.40329 | 1767 ft | 5 kts | 322° |
| 2026-04-21 23:01 | -20.81246 | -49.40351 | 1766 ft | 4 kts | 321° |
| 2026-04-21 23:01 | -20.81230 | -49.40364 | 1766 ft | 2 kts | 321° |
| 2026-04-21 23:02 | -20.81227 | -49.40367 | 1766 ft | 0 kts | 321° |